Time;durP1;ratioP1;P1;durP2;ratioP2;P2;SDS_P1;SDS_P2;PMS_P1;PMS_P2;Temp;Humidity;BMP_temperature;BMP_pressure;BME280_temperature;BME280_humidity;BME280_pressure;Samples;Min_cycle;Max_cycle;Signal;HPM_P1;HPM_P2
2023/09/10 00:02:25;;;;;;;2.60;2.60;;;24.40;75.30;;;;;;5016230;28;43405;-71
2023/09/10 00:04:53;;;;;;;2.63;2.63;;;24.50;74.90;;;;;;5013826;28;44275;-70
2023/09/10 00:07:22;;;;;;;2.58;2.58;;;24.50;74.60;;;;;;5013952;28;43779;-69
2023/09/10 00:09:50;;;;;;;2.80;2.80;;;24.50;74.80;;;;;;5010700;28;44844;-70
2023/09/10 00:12:18;;;;;;;2.97;2.88;;;24.50;75.10;;;;;;5011952;28;43853;-70
2023/09/10 00:14:46;;;;;;;2.53;2.53;;;24.40;75.30;;;;;;5012775;28;43678;-70
2023/09/10 00:17:14;;;;;;;2.20;2.20;;;24.40;75.90;;;;;;5016117;28;43941;-70
2023/09/10 00:19:43;;;;;;;2.70;2.70;;;24.40;75.50;;;;;;5008795;28;43482;-70
2023/09/10 00:22:12;;;;;;;2.50;2.50;;;24.40;75.60;;;;;;5010378;28;43450;-71
2023/09/10 00:24:39;;;;;;;2.50;2.50;;;24.30;75.80;;;;;;5010128;28;43543;-71
2023/09/10 00:27:07;;;;;;;2.60;2.60;;;24.30;76.50;;;;;;5015347;28;45376;-79
2023/09/10 00:29:35;;;;;;;2.75;2.75;;;24.30;75.90;;;;;;5013490;28;44271;-80
2023/09/10 00:32:04;;;;;;;2.65;2.65;;;24.20;75.90;;;;;;5008034;28;43491;-79
2023/09/10 00:34:33;;;;;;;2.60;2.60;;;24.30;76.10;;;;;;5011271;28;43582;-79
2023/09/10 00:37:02;;;;;;;2.75;2.55;;;24.20;75.90;;;;;;5010751;28;46028;-79
2023/09/10 00:39:30;;;;;;;2.50;2.50;;;24.30;75.90;;;;;;5014807;28;45114;-79
2023/09/10 00:41:58;;;;;;;2.50;2.50;;;24.40;75.50;;;;;;5015073;28;43863;-79
2023/09/10 00:44:27;;;;;;;2.58;2.58;;;24.50;75.00;;;;;;5009411;28;43468;-79
2023/09/10 00:46:55;;;;;;;2.75;2.65;;;24.50;74.80;;;;;;5009410;28;43721;-74
2023/09/10 00:49:23;;;;;;;2.60;2.60;;;24.50;75.00;;;;;;5016788;28;43430;-79
2023/09/10 00:51:51;;;;;;;2.53;2.50;;;24.50;75.30;;;;;;5013550;28;43457;-79
2023/09/10 00:54:20;;;;;;;2.45;2.45;;;24.40;75.30;;;;;;5013556;28;43861;-79
2023/09/10 00:56:48;;;;;;;2.40;2.40;;;24.40;75.40;;;;;;5015570;28;45803;-78
2023/09/10 00:59:16;;;;;;;2.50;2.50;;;24.30;75.50;;;;;;5011058;28;44723;-78
2023/09/10 01:01:44;;;;;;;2.50;2.50;;;24.30;75.70;;;;;;5046515;22;45094;-66
2023/09/10 01:04:12;;;;;;;2.50;2.50;;;24.30;75.90;;;;;;5040739;28;43653;-66
2023/09/10 01:06:40;;;;;;;2.25;2.25;;;24.30;75.80;;;;;;5038629;28;45736;-67
2023/09/10 01:09:08;;;;;;;2.50;2.50;;;24.30;75.50;;;;;;5035858;28;44886;-66
2023/09/10 01:11:42;;;;;;;2.47;2.47;;;24.40;75.20;;;;;;5039151;28;43387;-66
2023/09/10 01:14:13;;;;;;;2.50;2.50;;;24.50;74.80;;;;;;5050301;28;43479;-67
2023/09/10 01:16:45;;;;;;;2.58;2.58;;;24.50;74.80;;;;;;5035556;28;45670;-66
2023/09/10 01:19:30;;;;;;;2.55;2.55;;;24.50;75.10;;;;;;5038658;28;45059;-66
2023/09/10 01:22:01;;;;;;;2.50;2.50;;;24.40;75.20;;;;;;5044281;28;43505;-67
2023/09/10 01:24:41;;;;;;;2.25;2.25;;;24.40;75.30;;;;;;5042124;28;43597;-66
2023/09/10 01:27:09;;;;;;;2.13;2.13;;;24.40;75.40;;;;;;5045821;28;45725;-66
2023/09/10 01:29:37;;;;;;;2.30;2.30;;;24.40;75.60;;;;;;5047186;28;44796;-66
2023/09/10 01:32:06;;;;;;;2.50;2.50;;;24.30;75.80;;;;;;5035907;28;43511;-65
2023/09/10 01:34:38;;;;;;;2.75;2.75;;;24.30;75.80;;;;;;5047617;28;43901;-65
2023/09/10 01:37:11;;;;;;;2.60;2.60;;;24.30;75.80;;;;;;5040688;28;46015;-65
2023/09/10 01:39:41;;;;;;;2.45;2.45;;;24.30;76.00;;;;;;5042978;28;44685;-67
2023/09/10 01:42:09;;;;;;;2.50;2.50;;;24.30;76.10;;;;;;5043334;28;43417;-67
2023/09/10 01:44:37;;;;;;;2.33;2.33;;;24.20;76.10;;;;;;5042139;28;43448;-67
2023/09/10 01:47:05;;;;;;;2.47;2.47;;;24.20;76.70;;;;;;5041949;28;45712;-69
2023/09/10 01:49:33;;;;;;;2.30;2.30;;;24.30;75.80;;;;;;5066078;28;44819;-67
2023/09/10 01:52:01;;;;;;;2.70;2.70;;;24.40;75.30;;;;;;5040919;28;43451;-67
2023/09/10 01:54:29;;;;;;;2.30;2.30;;;24.50;74.90;;;;;;5041489;28;43598;-66
2023/09/10 01:56:59;;;;;;;2.67;2.58;;;24.50;74.80;;;;;;5035489;28;46015;-66
2023/09/10 01:59:27;;;;;;;2.35;2.30;;;24.50;75.00;;;;;;5056909;28;44054;-66
2023/09/10 02:01:55;;;;;;;2.47;2.47;;;24.50;75.30;;;;;;5043278;28;43371;-67
2023/09/10 02:04:23;;;;;;;2.47;2.47;;;24.40;75.30;;;;;;5040766;28;43529;-66
2023/09/10 02:06:51;;;;;;;2.30;2.30;;;24.40;75.40;;;;;;5037379;28;46010;-70
2023/09/10 02:09:19;;;;;;;2.35;2.35;;;24.30;75.50;;;;;;5045942;28;44718;-70
2023/09/10 02:11:47;;;;;;;2.50;2.50;;;24.30;75.70;;;;;;5025708;28;45080;-70
2023/09/10 02:14:17;;;;;;;2.42;2.42;;;24.30;75.80;;;;;;5034580;28;44117;-70
2023/09/10 02:16:45;;;;;;;2.45;2.45;;;24.30;75.80;;;;;;5027778;28;45751;-71
2023/09/10 02:19:13;;;;;;;2.40;2.40;;;24.40;75.40;;;;;;5029541;28;45027;-71
2023/09/10 02:21:41;;;;;;;2.47;2.47;;;24.50;75.00;;;;;;5034310;28;43490;-71
2023/09/10 02:24:09;;;;;;;2.20;2.20;;;24.60;74.70;;;;;;5035467;28;43454;-72
2023/09/10 02:26:37;;;;;;;2.35;2.35;;;24.60;74.50;;;;;;5024361;28;45587;-69
2023/09/10 02:29:05;;;;;;;2.40;2.40;;;24.60;74.70;;;;;;5032010;28;45019;-70
2023/09/10 02:31:35;;;;;;;2.40;2.40;;;24.50;75.00;;;;;;5031835;28;44162;-70
2023/09/10 02:34:03;;;;;;;2.42;2.42;;;24.50;75.10;;;;;;5029224;28;43487;-70
2023/09/10 02:36:31;;;;;;;2.58;2.58;;;24.40;75.80;;;;;;5024978;28;45712;-70
2023/09/10 02:38:59;;;;;;;2.60;2.60;;;24.40;75.40;;;;;;5034262;28;43441;-70
2023/09/10 02:41:27;;;;;;;2.45;2.45;;;24.40;75.60;;;;;;5034493;28;43812;-69
2023/09/10 02:43:55;;;;;;;2.35;2.35;;;24.30;76.40;;;;;;5035743;28;43534;-69
2023/09/10 02:46:25;;;;;;;2.40;2.40;;;24.30;75.70;;;;;;5026628;28;45546;-71
2023/09/10 02:48:54;;;;;;;2.30;2.30;;;24.30;75.80;;;;;;5030261;28;44727;-71
2023/09/10 02:51:22;;;;;;;2.67;2.58;;;24.30;75.90;;;;;;5031019;28;44138;-71
2023/09/10 02:53:50;;;;;;;2.35;2.35;;;24.20;76.00;;;;;;5034919;28;43935;-72
2023/09/10 02:56:18;;;;;;;2.38;2.38;;;24.20;75.90;;;;;;5029970;28;45645;-70
2023/09/10 02:58:47;;;;;;;2.40;2.40;;;24.30;75.70;;;;;;5031498;28;44886;-73
2023/09/10 03:01:15;;;;;;;2.38;2.28;;;24.40;75.40;;;;;;5029869;28;43511;-71
2023/09/10 03:03:43;;;;;;;2.50;2.50;;;24.40;75.30;;;;;;5036040;28;43544;-70
2023/09/10 03:06:13;;;;;;;2.40;2.40;;;24.40;75.40;;;;;;5030880;28;45746;-71
2023/09/10 03:08:42;;;;;;;2.70;2.70;;;24.40;75.50;;;;;;5032794;28;45006;-71
2023/09/10 03:11:10;;;;;;;2.45;2.45;;;24.40;75.40;;;;;;5030860;28;43551;-71
2023/09/10 03:13:38;;;;;;;2.70;2.70;;;24.30;75.40;;;;;;5035337;28;43421;-70
2023/09/10 03:16:07;;;;;;;2.42;2.42;;;24.30;75.60;;;;;;5033738;28;46117;-67
2023/09/10 03:18:35;;;;;;;2.38;2.38;;;24.30;75.80;;;;;;5041544;28;45100;-67
2023/09/10 03:21:04;;;;;;;2.22;2.22;;;24.30;75.70;;;;;;5038388;28;43504;-67
2023/09/10 03:23:33;;;;;;;2.22;2.22;;;24.30;75.80;;;;;;5043590;28;43477;-66
2023/09/10 03:26:02;;;;;;;2.40;2.40;;;24.30;76.00;;;;;;5039639;28;43909;-67
2023/09/10 03:28:31;;;;;;;2.30;2.30;;;24.20;76.00;;;;;;5043805;28;43561;-66
2023/09/10 03:30:59;;;;;;;2.65;2.65;;;24.20;76.10;;;;;;5040645;28;44035;-66
2023/09/10 03:33:27;;;;;;;2.40;2.40;;;24.30;75.90;;;;;;5042158;28;43576;-67
2023/09/10 03:35:55;;;;;;;2.20;2.20;;;24.40;75.50;;;;;;5037981;28;43829;-68
2023/09/10 03:38:23;;;;;;;2.67;2.58;;;24.40;74.90;;;;;;5035680;28;44726;-69
2023/09/10 03:40:53;;;;;;;2.50;2.50;;;24.50;74.70;;;;;;5045670;28;43490;-68
2023/09/10 03:43:21;;;;;;;2.08;2.08;;;24.50;74.80;;;;;;5039302;28;43425;-66
2023/09/10 03:45:53;;;;;;;2.53;2.53;;;24.50;75.10;;;;;;5040924;28;45480;-65
2023/09/10 03:48:24;;;;;;;2.47;2.47;;;24.40;75.20;;;;;;5044157;28;43757;-65
2023/09/10 03:50:52;;;;;;;2.22;2.22;;;24.40;75.30;;;;;;5043478;28;43494;-65
2023/09/10 03:53:20;;;;;;;2.60;2.50;;;24.40;75.50;;;;;;5051374;28;43504;-65
2023/09/10 03:55:49;;;;;;;2.40;2.40;;;24.30;75.60;;;;;;5038976;28;44066;-69
2023/09/10 03:58:18;;;;;;;2.60;2.60;;;24.30;75.80;;;;;;5039382;28;44764;-69
2023/09/10 04:00:46;;;;;;;2.50;2.50;;;24.30;75.80;;;;;;5035606;28;43455;-67
2023/09/10 04:03:14;;;;;;;2.15;2.15;;;24.30;75.80;;;;;;5036127;28;43560;-66
2023/09/10 04:05:42;;;;;;;2.40;2.40;;;24.20;75.80;;;;;;5038093;28;45343;-67
2023/09/10 04:08:11;;;;;;;2.50;2.50;;;24.20;76.00;;;;;;5041167;28;45362;-67
2023/09/10 04:10:39;;;;;;;2.40;2.40;;;24.20;76.00;;;;;;5042058;28;43428;-66
2023/09/10 04:13:07;;;;;;;2.60;2.60;;;24.30;76.70;;;;;;5049018;28;43495;-66
2023/09/10 04:15:36;;;;;;;2.30;2.30;;;24.40;75.60;;;;;;5037181;28;45248;-67
2023/09/10 04:18:05;;;;;;;2.60;2.60;;;24.50;75.20;;;;;;5044746;28;43484;-67
2023/09/10 04:20:33;;;;;;;2.25;2.25;;;24.50;74.80;;;;;;5041895;28;43498;-66
2023/09/10 04:23:02;;;;;;;2.50;2.50;;;24.50;74.80;;;;;;5039684;28;43591;-68
2023/09/10 04:25:31;;;;;;;2.38;2.38;;;24.50;75.10;;;;;;5045806;28;46017;-67
2023/09/10 04:28:01;;;;;;;2.40;2.40;;;24.40;75.20;;;;;;5031502;28;44454;-70
2023/09/10 04:30:29;;;;;;;2.60;2.50;;;24.40;75.30;;;;;;5026484;28;43806;-70
2023/09/10 04:32:58;;;;;;;2.13;2.13;;;24.40;75.40;;;;;;5031265;28;43758;-70
2023/09/10 04:35:26;;;;;;;2.55;2.55;;;24.40;75.60;;;;;;5030340;28;46160;-70
2023/09/10 04:37:54;;;;;;;2.63;2.53;;;24.30;75.80;;;;;;5028784;28;44758;-70
2023/09/10 04:40:23;;;;;;;2.83;2.83;;;24.30;75.80;;;;;;5034408;28;43510;-70
2023/09/10 04:42:53;;;;;;;2.50;2.50;;;24.30;75.70;;;;;;5028908;28;43419;-70
2023/09/10 04:45:21;;;;;;;2.33;2.33;;;24.40;75.20;;;;;;5045086;28;45994;-70
2023/09/10 04:47:49;;;;;;;2.15;2.15;;;24.50;75.00;;;;;;5050755;28;43703;-70
2023/09/10 04:50:18;;;;;;;2.35;2.35;;;24.50;74.90;;;;;;5033236;28;43482;-70
2023/09/10 04:52:46;;;;;;;2.30;2.30;;;24.50;75.10;;;;;;5027859;28;43835;-70
2023/09/10 04:55:15;;;;;;;2.38;2.38;;;24.40;75.20;;;;;;5026485;28;46086;-70
2023/09/10 04:57:45;;;;;;;2.58;2.50;;;24.40;75.40;;;;;;5028845;28;45660;-70
2023/09/10 05:00:14;;;;;;;2.10;2.10;;;24.40;75.50;;;;;;5027442;28;43956;-72
2023/09/10 05:02:42;;;;;;;2.30;2.30;;;24.30;75.60;;;;;;5052828;28;43538;-71
2023/09/10 05:05:15;;;;;;;2.22;2.22;;;24.30;75.70;;;;;;5023827;28;45241;-71
2023/09/10 05:07:48;;;;;;;2.60;2.60;;;24.30;75.90;;;;;;5022777;28;45007;-70
2023/09/10 05:10:16;;;;;;;2.30;2.30;;;24.30;76.70;;;;;;5030129;28;43546;-69
2023/09/10 05:12:45;;;;;;;2.17;2.17;;;24.30;76.00;;;;;;5052904;28;43812;-71
2023/09/10 05:15:13;;;;;;;2.50;2.50;;;24.20;75.90;;;;;;5028094;28;46189;-71
2023/09/10 05:17:41;;;;;;;2.50;2.50;;;24.20;76.10;;;;;;5053848;28;45910;-70
2023/09/10 05:20:10;;;;;;;2.42;2.42;;;24.20;76.10;;;;;;5024697;28;43515;-71
2023/09/10 05:22:38;;;;;;;2.65;2.65;;;24.30;76.00;;;;;;5052442;28;44034;-70
2023/09/10 05:25:09;;;;;;;2.10;2.10;;;24.40;75.60;;;;;;5024659;28;45731;-70
2023/09/10 05:27:38;;;;;;;2.30;2.30;;;24.40;75.10;;;;;;5034424;28;43537;-71
2023/09/10 05:30:07;;;;;;;2.70;2.70;;;24.50;74.80;;;;;;5029672;28;43499;-70
2023/09/10 05:32:35;;;;;;;2.22;2.22;;;24.50;74.80;;;;;;5030049;28;43941;-71
2023/09/10 05:35:04;;;;;;;2.30;2.30;;;24.50;75.00;;;;;;5032001;28;45896;-70
2023/09/10 05:37:32;;;;;;;2.42;2.42;;;24.40;75.20;;;;;;5029860;28;43873;-72
2023/09/10 05:40:00;;;;;;;2.47;2.47;;;24.40;75.20;;;;;;5033292;28;43542;-72
2023/09/10 05:42:30;;;;;;;2.33;2.33;;;24.40;75.30;;;;;;5029476;28;43548;-72
2023/09/10 05:44:58;;;;;;;2.50;2.40;;;24.40;75.50;;;;;;5033060;28;43845;-72
2023/09/10 05:47:26;;;;;;;2.40;2.40;;;24.30;75.70;;;;;;5029292;28;44453;-71
2023/09/10 05:49:54;;;;;;;2.17;2.17;;;24.30;75.80;;;;;;5031674;28;43470;-72
2023/09/10 05:52:22;;;;;;;2.50;2.50;;;24.30;75.90;;;;;;5028601;28;43459;-72
2023/09/10 05:54:51;;;;;;;2.33;2.33;;;24.30;75.90;;;;;;5025220;28;45273;-71
2023/09/10 05:57:22;;;;;;;2.22;2.22;;;24.20;75.90;;;;;;5027938;28;44385;-71
2023/09/10 05:59:51;;;;;;;2.40;2.38;;;24.20;76.10;;;;;;5027374;28;43987;-72
2023/09/10 06:02:19;;;;;;;2.40;2.40;;;24.20;76.70;;;;;;5032699;28;43626;-72
2023/09/10 06:04:47;;;;;;;2.20;2.20;;;24.30;75.70;;;;;;5031468;28;46878;-71
2023/09/10 06:07:17;;;;;;;2.13;2.13;;;24.40;75.30;;;;;;5029407;28;43570;-70
2023/09/10 06:09:46;;;;;;;2.38;2.38;;;24.50;75.00;;;;;;5027959;28;43594;-70
2023/09/10 06:12:14;;;;;;;2.38;2.38;;;24.50;74.90;;;;;;5038923;28;43515;-72
2023/09/10 06:14:42;;;;;;;2.30;2.30;;;24.50;75.00;;;;;;5034913;28;44254;-72
2023/09/10 06:17:11;;;;;;;2.20;2.20;;;24.40;75.20;;;;;;5033650;28;44854;-71
2023/09/10 06:19:39;;;;;;;2.75;2.75;;;24.40;75.40;;;;;;5037320;28;44032;-71
2023/09/10 06:22:07;;;;;;;2.10;2.10;;;24.40;75.40;;;;;;5032749;28;43601;-71
2023/09/10 06:24:35;;;;;;;2.35;2.35;;;24.30;75.30;;;;;;5037823;28;45637;-71
2023/09/10 06:27:04;;;;;;;2.50;2.50;;;24.30;75.70;;;;;;5032412;28;43975;-72
2023/09/10 06:29:32;;;;;;;2.50;2.50;;;24.30;75.80;;;;;;5035030;28;43929;-71
2023/09/10 06:32:01;;;;;;;2.30;2.30;;;24.30;75.90;;;;;;5035216;28;43494;-71
2023/09/10 06:34:32;;;;;;;2.40;2.40;;;24.20;75.60;;;;;;5055203;28;45989;-72
2023/09/10 06:37:00;;;;;;;2.45;2.45;;;24.20;75.70;;;;;;5035212;28;44883;-72
2023/09/10 06:39:28;;;;;;;2.45;2.45;;;24.10;76.00;;;;;;5035244;28;43491;-71
2023/09/10 06:41:56;;;;;;;2.25;2.25;;;24.20;76.10;;;;;;5051642;28;43593;-71
2023/09/10 06:44:34;;;;;;;2.60;2.60;;;24.30;75.70;;;;;;5035665;28;43840;-71
2023/09/10 06:47:02;;;;;;;2.55;2.55;;;24.40;75.20;;;;;;5029625;28;45123;-71
2023/09/10 06:49:32;;;;;;;2.63;2.63;;;24.50;75.00;;;;;;5036775;28;44289;-72
2023/09/10 06:52:00;;;;;;;2.45;2.45;;;24.50;74.90;;;;;;5036576;28;43476;-71
2023/09/10 06:54:28;;;;;;;2.60;2.60;;;24.40;74.80;;;;;;5036270;28;44000;-72
2023/09/10 06:56:58;;;;;;;2.60;2.60;;;24.40;75.30;;;;;;5039804;28;43502;-71
2023/09/10 06:59:26;;;;;;;2.50;2.50;;;24.30;75.40;;;;;;5034266;28;43464;-71
2023/09/10 07:01:54;;;;;;;2.65;2.65;;;24.30;75.40;;;;;;4998876;28;1091830;-71
2023/09/10 07:04:25;;;;;;;2.60;2.60;;;24.30;75.40;;;;;;5036335;28;43951;-71
2023/09/10 07:06:54;;;;;;;2.47;2.47;;;24.20;75.70;;;;;;5037356;28;43439;-70
2023/09/10 07:09:23;;;;;;;2.60;2.60;;;24.20;75.90;;;;;;5031998;28;44229;-70
2023/09/10 07:11:54;;;;;;;2.65;2.65;;;24.20;75.80;;;;;;5038970;28;43964;-71
2023/09/10 07:14:22;;;;;;;2.70;2.70;;;24.20;75.70;;;;;;5030825;28;46023;-71
2023/09/10 07:16:51;;;;;;;2.65;2.55;;;24.20;75.80;;;;;;5033682;28;43458;-70
2023/09/10 07:19:19;;;;;;;2.80;2.70;;;24.10;76.00;;;;;;5035545;28;43388;-70
2023/09/10 07:21:47;;;;;;;2.63;2.63;;;24.20;76.10;;;;;;5034612;28;43457;-71
2023/09/10 07:24:16;;;;;;;2.50;2.50;;;24.30;76.50;;;;;;5034223;28;43873;-72
2023/09/10 07:26:45;;;;;;;2.60;2.60;;;24.40;75.40;;;;;;5031035;28;44003;-73
2023/09/10 07:29:15;;;;;;;2.92;2.90;;;24.50;75.00;;;;;;5034313;28;43601;-71
2023/09/10 07:31:44;;;;;;;2.50;2.50;;;24.50;74.90;;;;;;5037785;28;43537;-71
2023/09/10 07:34:12;;;;;;;2.35;2.35;;;24.40;74.80;;;;;;5034837;28;44088;-71
2023/09/10 07:36:40;;;;;;;3.03;3.03;;;24.40;75.20;;;;;;5036810;28;43601;-72
2023/09/10 07:39:08;;;;;;;2.42;2.42;;;24.30;75.30;;;;;;5033864;28;44094;-71
2023/09/10 07:41:38;;;;;;;2.40;2.40;;;24.30;75.40;;;;;;5033857;28;43467;-71
2023/09/10 07:44:06;;;;;;;2.50;2.50;;;24.30;75.40;;;;;;5031175;28;44397;-71
2023/09/10 07:46:34;;;;;;;2.60;2.60;;;24.20;75.40;;;;;;5028806;28;43427;-71
2023/09/10 07:49:02;;;;;;;2.60;2.60;;;24.20;75.90;;;;;;5029550;28;43535;-70
2023/09/10 07:51:30;;;;;;;2.60;2.60;;;24.20;75.90;;;;;;5033694;28;43491;-72
2023/09/10 07:53:58;;;;;;;2.80;2.70;;;24.20;75.80;;;;;;5039088;28;44877;-71
2023/09/10 07:56:27;;;;;;;2.72;2.72;;;24.10;75.70;;;;;;5033224;28;44113;-71
2023/09/10 07:58:58;;;;;;;2.78;2.67;;;24.10;76.10;;;;;;5031006;28;43627;-71
2023/09/10 08:01:26;;;;;;;2.63;2.63;;;24.10;76.10;;;;;;5030889;28;43973;-70
2023/09/10 08:03:54;;;;;;;2.70;2.70;;;24.10;76.00;;;;;;5034946;28;43914;-71
2023/09/10 08:06:22;;;;;;;2.75;2.75;;;24.10;75.90;;;;;;5035057;28;43963;-72
2023/09/10 08:08:50;;;;;;;2.60;2.60;;;24.10;76.20;;;;;;5025402;28;43580;-72
2023/09/10 08:11:18;;;;;;;2.65;2.60;;;24.10;76.40;;;;;;5033865;28;43913;-71
2023/09/10 08:13:46;;;;;;;2.80;2.80;;;24.10;76.10;;;;;;5032262;28;43995;-72
2023/09/10 08:16:17;;;;;;;2.83;2.83;;;24.30;75.80;;;;;;5031049;28;44749;-71
2023/09/10 08:18:45;;;;;;;2.80;2.80;;;24.30;75.30;;;;;;5030957;28;43547;-72
2023/09/10 08:21:13;;;;;;;2.63;2.63;;;24.50;75.00;;;;;;5041329;28;43391;-72
2023/09/10 08:23:42;;;;;;;2.92;2.70;;;24.50;74.90;;;;;;5030300;28;44098;-71
2023/09/10 08:26:11;;;;;;;2.80;2.80;;;24.40;74.80;;;;;;5038077;28;44028;-72
2023/09/10 08:28:39;;;;;;;2.63;2.63;;;24.40;75.20;;;;;;5034098;28;43877;-72
2023/09/10 08:31:08;;;;;;;2.55;2.55;;;24.30;75.30;;;;;;5034357;28;43403;-72
2023/09/10 08:33:37;;;;;;;2.58;2.58;;;24.30;75.30;;;;;;5021429;28;46899;-72
2023/09/10 08:36:05;;;;;;;2.90;2.90;;;24.30;75.50;;;;;;5033717;28;44397;-73
2023/09/10 08:38:34;;;;;;;2.75;2.72;;;24.20;75.80;;;;;;5032601;28;43536;-72
2023/09/10 08:41:08;;;;;;;2.78;2.67;;;24.20;75.90;;;;;;5031803;28;43457;-72
2023/09/10 08:43:40;;;;;;;2.60;2.60;;;24.20;75.90;;;;;;5030712;28;43949;-72
2023/09/10 08:46:10;;;;;;;2.60;2.60;;;24.20;75.90;;;;;;5052999;28;44240;-71
2023/09/10 08:48:41;;;;;;;2.55;2.55;;;24.10;76.00;;;;;;5026864;28;43509;-72
2023/09/10 08:51:09;;;;;;;2.63;2.63;;;24.10;76.20;;;;;;5034910;28;43486;-72
2023/09/10 08:53:38;;;;;;;2.85;2.75;;;24.10;76.10;;;;;;5039141;28;44620;-71
2023/09/10 08:56:07;;;;;;;2.70;2.70;;;24.30;75.80;;;;;;5038430;28;43793;-72
2023/09/10 08:58:36;;;;;;;3.10;3.10;;;24.40;75.40;;;;;;5034927;28;43457;-72
2023/09/10 09:01:05;;;;;;;3.25;3.20;;;24.40;75.10;;;;;;5024529;28;44104;-72
2023/09/10 09:03:33;;;;;;;2.72;2.63;;;24.40;75.10;;;;;;5025381;28;46089;-72
2023/09/10 09:06:04;;;;;;;2.57;2.57;;;24.40;75.20;;;;;;5038093;28;45067;-70
2023/09/10 09:08:33;;;;;;;2.78;2.78;;;24.30;75.50;;;;;;5027600;28;43627;-70
2023/09/10 09:11:04;;;;;;;2.88;2.88;;;24.30;75.80;;;;;;5031575;28;43454;-70
2023/09/10 09:13:34;;;;;;;2.45;2.45;;;24.30;75.70;;;;;;5030283;28;44148;-71
2023/09/10 09:16:03;;;;;;;2.67;2.67;;;24.20;75.70;;;;;;5028171;28;44835;-71
2023/09/10 09:18:31;;;;;;;2.50;2.50;;;24.20;75.80;;;;;;5033845;28;44120;-71
2023/09/10 09:21:03;;;;;;;2.80;2.80;;;24.10;76.10;;;;;;5034285;28;43555;-71
2023/09/10 09:23:32;;;;;;;2.45;2.45;;;24.20;76.20;;;;;;5032099;28;43599;-71
2023/09/10 09:26:01;;;;;;;2.55;2.55;;;24.30;75.90;;;;;;5038502;28;43411;-70
2023/09/10 09:28:30;;;;;;;2.75;2.75;;;24.30;75.60;;;;;;5031191;28;43442;-71
2023/09/10 09:30:58;;;;;;;2.70;2.70;;;24.30;75.60;;;;;;5034952;28;43428;-70
2023/09/10 09:33:26;;;;;;;2.65;2.65;;;24.30;75.80;;;;;;5034949;28;44039;-70
2023/09/10 09:35:54;;;;;;;2.80;2.70;;;24.30;75.90;;;;;;5034013;28;43399;-70
2023/09/10 09:38:23;;;;;;;2.65;2.65;;;24.30;75.80;;;;;;5046009;28;43418;-70
2023/09/10 09:40:51;;;;;;;2.60;2.60;;;24.30;75.80;;;;;;5037424;28;43916;-70
2023/09/10 09:43:20;;;;;;;2.53;2.53;;;24.20;75.80;;;;;;5031231;28;46008;-70
2023/09/10 09:45:48;;;;;;;2.85;2.83;;;24.10;76.00;;;;;;5037079;28;43347;-70
2023/09/10 09:48:17;;;;;;;2.58;2.58;;;24.20;76.80;;;;;;5035476;28;43494;-70
2023/09/10 09:50:46;;;;;;;2.80;2.80;;;24.20;76.10;;;;;;5038299;28;43383;-70
2023/09/10 09:53:15;;;;;;;2.70;2.63;;;24.20;76.20;;;;;;5032557;28;43868;-70
2023/09/10 09:55:45;;;;;;;2.38;2.38;;;24.10;76.40;;;;;;5035317;28;43506;-70
2023/09/10 09:58:13;;;;;;;2.60;2.50;;;24.10;77.00;;;;;;5031186;28;43885;-70
2023/09/10 10:00:41;;;;;;;2.50;2.50;;;24.20;76.20;;;;;;5037654;28;43504;-70
2023/09/10 10:03:10;;;;;;;2.95;2.95;;;24.30;75.80;;;;;;5032495;28;43619;-70
2023/09/10 10:05:38;;;;;;;2.78;2.78;;;24.40;75.40;;;;;;5050552;28;45181;-70
2023/09/10 10:08:06;;;;;;;2.78;2.58;;;24.40;75.10;;;;;;5031846;28;44514;-70
2023/09/10 10:10:35;;;;;;;2.60;2.60;;;24.40;75.20;;;;;;5030747;28;43425;-70
2023/09/10 10:13:05;;;;;;;2.63;2.63;;;24.40;75.40;;;;;;5024640;28;43940;-70
2023/09/10 10:15:33;;;;;;;2.50;2.50;;;24.40;75.70;;;;;;5034349;28;45680;-70
2023/09/10 10:18:01;;;;;;;2.70;2.70;;;24.30;75.60;;;;;;5056323;27;43559;-68
2023/09/10 10:20:29;;;;;;;2.63;2.63;;;24.30;75.80;;;;;;5070998;22;43473;-77
2023/09/10 10:22:57;;;;;;;2.72;2.72;;;24.30;75.90;;;;;;5045100;28;44382;-75
2023/09/10 10:25:35;;;;;;;2.88;2.78;;;24.20;76.00;;;;;;5041736;28;44438;-75
2023/09/10 10:28:07;;;;;;;3.00;2.97;;;24.20;76.10;;;;;;5048448;28;43842;-76
2023/09/10 10:30:36;;;;;;;2.53;2.53;;;24.20;76.10;;;;;;5041551;28;43627;-78
2023/09/10 10:33:05;;;;;;;2.60;2.60;;;24.20;76.20;;;;;;5050864;28;43936;-77
2023/09/10 10:35:34;;;;;;;2.65;2.65;;;24.10;76.30;;;;;;5048999;28;44477;-77
2023/09/10 10:38:03;;;;;;;2.40;2.40;;;24.10;76.30;;;;;;5042392;28;43450;-77
2023/09/10 10:40:32;;;;;;;2.53;2.53;;;24.20;76.20;;;;;;5053705;28;43572;-78
2023/09/10 10:43:04;;;;;;;2.70;2.70;;;24.30;76.70;;;;;;5050856;28;45484;-77
2023/09/10 10:45:34;;;;;;;2.60;2.60;;;24.40;75.50;;;;;;5053165;28;43324;-77
2023/09/10 10:48:05;;;;;;;2.67;2.67;;;24.40;75.40;;;;;;5050114;28;43903;-75
2023/09/10 10:50:36;;;;;;;2.72;2.72;;;24.40;75.50;;;;;;5052456;28;43414;-77
2023/09/10 10:53:05;;;;;;;2.60;2.60;;;24.30;75.70;;;;;;5044969;28;44978;-78
2023/09/10 10:55:33;;;;;;;2.55;2.55;;;24.30;75.80;;;;;;5049419;28;43517;-74
2023/09/10 10:58:01;;;;;;;2.63;2.63;;;24.30;75.90;;;;;;5055250;28;43419;-75
2023/09/10 11:00:29;;;;;;;2.40;2.40;;;24.30;76.00;;;;;;5049912;28;43537;-76
2023/09/10 11:03:10;;;;;;;2.50;2.50;;;24.20;76.10;;;;;;5047661;28;45808;-78
2023/09/10 11:06:04;;;;;;;2.75;2.65;;;24.20;76.90;;;;;;5060428;28;44983;-77
2023/09/10 11:08:33;;;;;;;2.78;2.78;;;24.20;76.30;;;;;;5047047;28;43502;-75
2023/09/10 11:11:03;;;;;;;2.60;2.60;;;24.20;76.30;;;;;;5050437;28;43388;-77
2023/09/10 11:13:31;;;;;;;2.60;2.60;;;24.20;76.40;;;;;;5047978;28;45665;-74
2023/09/10 11:16:15;;;;;;;2.67;2.67;;;24.10;76.40;;;;;;5051075;28;44325;-75
2023/09/10 11:18:45;;;;;;;2.63;2.63;;;24.20;76.30;;;;;;5048448;28;43446;-77
2023/09/10 11:21:14;;;;;;;2.88;2.80;;;24.30;76.00;;;;;;5055874;28;43791;-77
2023/09/10 11:24:16;;;;;;;2.70;2.70;;;24.40;75.50;;;;;;5048774;28;45918;-77
2023/09/10 11:26:44;;;;;;;2.83;2.78;;;24.50;75.30;;;;;;5048182;28;44708;-76
2023/09/10 11:29:15;;;;;;;2.60;2.60;;;24.50;75.30;;;;;;5049784;28;44214;-76
2023/09/10 11:31:45;;;;;;;2.78;2.67;;;24.40;76.20;;;;;;5052230;28;43511;-77
2023/09/10 11:34:38;;;;;;;2.70;2.70;;;24.40;75.70;;;;;;5062795;28;45343;-77
2023/09/10 11:37:07;;;;;;;3.17;3.08;;;24.30;75.70;;;;;;5075018;28;45279;-76
2023/09/10 11:39:36;;;;;;;2.40;2.40;;;24.30;75.80;;;;;;5050223;28;43458;-75
2023/09/10 11:42:08;;;;;;;2.72;2.72;;;24.30;76.00;;;;;;5047087;28;43974;-77
2023/09/10 11:44:37;;;;;;;2.70;2.70;;;24.20;76.10;;;;;;5051936;28;44033;-76
2023/09/10 11:47:05;;;;;;;2.47;2.47;;;24.20;76.20;;;;;;5046396;28;44757;-78
2023/09/10 11:49:33;;;;;;;2.60;2.60;;;24.20;76.20;;;;;;5056846;28;43381;-74
2023/09/10 11:52:03;;;;;;;2.45;2.45;;;24.20;76.30;;;;;;5050280;28;44034;-75
2023/09/10 11:54:31;;;;;;;2.72;2.60;;;24.20;76.40;;;;;;5052884;28;44103;-74
2023/09/10 11:56:59;;;;;;;2.55;2.55;;;24.20;76.50;;;;;;5040612;28;47517;-78
2023/09/10 11:59:29;;;;;;;2.45;2.45;;;24.20;77.00;;;;;;5049984;28;43538;-76
2023/09/10 12:01:58;;;;;;;2.80;2.80;;;24.30;76.00;;;;;;5051056;28;44139;-77
2023/09/10 12:04:28;;;;;;;2.58;2.58;;;24.40;75.40;;;;;;5052336;28;43696;-76
2023/09/10 12:06:56;;;;;;;2.50;2.50;;;24.50;75.20;;;;;;5053815;28;44793;-73
2023/09/10 12:09:29;;;;;;;2.40;2.40;;;24.50;75.30;;;;;;5050774;28;43745;-77
2023/09/10 12:11:58;;;;;;;2.80;2.80;;;24.50;75.40;;;;;;5050309;28;43462;-76
2023/09/10 12:14:26;;;;;;;2.50;2.50;;;24.40;75.60;;;;;;5053393;28;45549;-76
2023/09/10 12:16:54;;;;;;;2.78;2.78;;;24.40;75.60;;;;;;5047937;28;44763;-75
2023/09/10 12:19:22;;;;;;;2.50;2.50;;;24.40;75.80;;;;;;5052199;28;43478;-75
2023/09/10 12:21:51;;;;;;;2.30;2.30;;;24.30;75.90;;;;;;5062568;28;43620;-75
2023/09/10 12:24:19;;;;;;;2.50;2.50;;;24.30;76.10;;;;;;5044766;28;45758;-76
2023/09/10 12:26:49;;;;;;;2.28;2.28;;;24.30;76.10;;;;;;5047786;28;44414;-74
2023/09/10 12:29:17;;;;;;;2.40;2.40;;;24.20;76.20;;;;;;5042847;28;43936;-76
2023/09/10 12:31:46;;;;;;;2.72;2.72;;;24.20;76.20;;;;;;5046381;28;43979;-77
2023/09/10 12:34:15;;;;;;;2.47;2.47;;;24.20;76.30;;;;;;5045965;28;46099;-77
2023/09/10 12:36:44;;;;;;;2.53;2.53;;;24.10;76.60;;;;;;5053468;28;43404;-76
2023/09/10 12:39:19;;;;;;;2.40;2.40;;;24.20;76.40;;;;;;5046457;28;43484;-74
2023/09/10 12:41:52;;;;;;;2.30;2.30;;;24.30;76.30;;;;;;5053203;28;43467;-74
2023/09/10 12:44:21;;;;;;;2.53;2.53;;;24.40;76.40;;;;;;5047667;28;45875;-74
2023/09/10 12:46:51;;;;;;;2.60;2.60;;;24.50;75.30;;;;;;5053116;28;44102;-77
2023/09/10 12:49:21;;;;;;;2.42;2.42;;;24.50;75.30;;;;;;5048847;28;43446;-76
2023/09/10 12:51:49;;;;;;;2.50;2.50;;;24.50;75.40;;;;;;5048086;28;44074;-74
2023/09/10 12:54:17;;;;;;;2.50;2.50;;;24.40;75.60;;;;;;5051439;28;43608;-74
2023/09/10 12:56:48;;;;;;;2.60;2.60;;;24.40;75.70;;;;;;5047131;28;44348;-77
2023/09/10 12:59:17;;;;;;;2.53;2.53;;;24.30;75.70;;;;;;5049830;28;43456;-74